Time;durP1;ratioP1;P1;durP2;ratioP2;P2;SDS_P1;SDS_P2;PMS_P1;PMS_P2;Temp;Humidity;BMP_temperature;BMP_pressure;BME280_temperature;BME280_humidity;BME280_pressure;Samples;Min_cycle;Max_cycle;Signal;HPM_P1;HPM_P2
2024/01/25 00:01:03;;;;;;;37.72;17.50;;;;;;;3.90;61.59;100099.00;3102276;28;20442;-75
2024/01/25 00:02:35;;;;;;;37.42;16.13;;;;;;;3.88;61.74;100083.59;3101636;28;20443;-75
2024/01/25 00:04:07;;;;;;;40.60;15.70;;;;;;;3.88;61.88;100086.16;3108582;28;20089;-80
2024/01/25 00:05:38;;;;;;;40.03;16.10;;;;;;;3.87;61.96;100099.91;3108479;28;20053;-75
2024/01/25 00:07:10;;;;;;;35.08;16.38;;;;;;;3.86;62.13;100075.00;3108211;28;20507;-78
2024/01/25 00:08:40;;;;;;;35.33;14.82;;;;;;;3.83;62.19;100065.59;3108326;28;20054;-76
2024/01/25 00:10:12;;;;;;;39.13;15.15;;;;;;;3.79;62.47;100045.06;3106926;28;20456;-76
2024/01/25 00:11:43;;;;;;;35.83;15.02;;;;;;;3.74;62.65;100033.97;3108035;28;20534;-77
2024/01/25 00:13:15;;;;;;;32.80;15.25;;;;;;;3.64;62.72;100034.09;3108085;28;20053;-79
2024/01/25 00:14:46;;;;;;;39.60;14.95;;;;;;;3.56;62.95;100043.63;3098184;28;20058;-79
2024/01/25 00:16:18;;;;;;;35.63;15.43;;;;;;;3.53;63.22;100033.38;3094252;28;20065;-76
2024/01/25 00:17:50;;;;;;;33.65;14.80;;;;;;;3.52;63.23;100039.41;3107232;28;20472;-77
2024/01/25 00:19:21;;;;;;;33.45;14.60;;;;;;;3.49;63.24;100044.59;3107630;28;20046;-79
2024/01/25 00:20:53;;;;;;;30.60;14.52;;;;;;;3.48;63.22;100049.75;3107955;28;20062;-78
2024/01/25 00:22:24;;;;;;;32.13;14.63;;;;;;;3.47;63.28;100051.47;3108191;28;20073;-79
2024/01/25 00:23:56;;;;;;;34.80;14.50;;;;;;;3.39;63.37;100041.25;3108210;28;20483;-77
2024/01/25 00:25:27;;;;;;;31.35;15.23;;;;;;;3.45;63.38;100039.50;3102096;28;20057;-77
2024/01/25 00:26:58;;;;;;;32.60;15.23;;;;;;;3.45;63.31;100024.03;3103191;28;20084;-76
2024/01/25 00:28:29;;;;;;;38.28;16.35;;;;;;;3.49;63.49;100020.53;3105211;28;20049;-79
2024/01/25 00:30:01;;;;;;;41.88;18.10;;;;;;;3.47;63.38;100028.31;3107584;28;20533;-79
2024/01/25 00:31:32;;;;;;;37.25;16.33;;;;;;;3.45;63.28;100024.88;3107688;28;20061;-78
2024/01/25 00:33:05;;;;;;;33.30;15.32;;;;;;;3.50;63.35;100038.56;3108229;28;20053;-78
2024/01/25 00:34:36;;;;;;;;;;;;;;;3.35;63.52;100031.03;3108241;28;20053;-79
2024/01/25 00:36:09;;;;;;;33.40;14.55;;;;;;;3.40;63.56;100036.97;3108195;28;19929;-78
2024/01/25 00:37:40;;;;;;;36.63;14.57;;;;;;;3.39;63.70;100030.97;3108095;28;20512;-77
2024/01/25 00:39:12;;;;;;;35.35;14.65;;;;;;;3.40;63.57;100035.25;3108175;28;20076;-78
2024/01/25 00:40:44;;;;;;;33.63;13.02;;;;;;;3.41;63.72;100034.38;3100065;28;20046;-80
2024/01/25 00:42:17;;;;;;;34.58;14.63;;;;;;;3.37;63.79;100035.31;3101585;28;20073;-79
2024/01/25 00:43:48;;;;;;;27.52;13.93;;;;;;;3.41;63.64;100029.22;3105840;28;20077;-78
2024/01/25 00:45:21;;;;;;;27.88;12.73;;;;;;;3.42;63.72;100030.06;3106447;28;20046;-79
2024/01/25 00:46:53;;;;;;;27.58;12.73;;;;;;;3.42;63.77;100010.31;3107704;28;20050;-80
2024/01/25 00:48:27;;;;;;;29.20;12.57;;;;;;;3.45;63.78;100008.59;3107939;28;20045;-78
2024/01/25 00:49:58;;;;;;;24.73;11.68;;;;;;;3.42;63.73;100006.91;3108036;28;20093;-81
2024/01/25 00:51:31;;;;;;;29.00;12.48;;;;;;;3.42;63.80;100010.31;3107850;28;20103;-81
2024/01/25 00:53:02;;;;;;;31.30;12.85;;;;;;;3.44;63.82;100020.63;3104505;28;20046;-76
2024/01/25 00:54:34;;;;;;;26.00;11.88;;;;;;;3.42;63.78;100000.03;3101505;28;20140;-77
2024/01/25 00:56:06;;;;;;;31.77;14.38;;;;;;;3.44;63.78;100004.31;3099440;28;20046;-77
2024/01/25 00:57:38;;;;;;;25.23;12.18;;;;;;;3.45;63.73;99999.13;3095930;28;20069;-76
2024/01/25 00:59:11;;;;;;;24.42;12.40;;;;;;;3.46;63.72;99989.69;3099754;28;20146;-77
2024/01/25 01:00:43;;;;;;;23.92;10.90;;;;;;;3.46;63.63;99995.72;3108388;28;20302;-77
2024/01/25 01:02:14;;;;;;;23.33;10.20;;;;;;;3.33;63.65;99974.41;3108535;28;20062;-79
2024/01/25 01:03:52;;;;;;;23.05;10.20;;;;;;;3.51;63.68;100008.50;3107788;28;20045;-79
2024/01/25 01:05:23;;;;;;;20.58;9.10;;;;;;;3.52;63.46;99992.19;3107754;28;20187;-79
2024/01/25 01:06:55;;;;;;;16.70;8.40;;;;;;;3.55;63.50;99984.41;3107722;28;20507;-79
2024/01/25 01:08:26;;;;;;;17.55;6.97;;;;;;;3.52;63.53;99967.31;3107655;28;20053;-77
2024/01/25 01:09:58;;;;;;;14.73;7.35;;;;;;;3.59;63.50;99974.06;3106316;28;20167;-78
2024/01/25 01:11:29;;;;;;;14.18;5.90;;;;;;;3.65;63.44;99975.72;3105519;28;20507;-79
2024/01/25 01:13:01;;;;;;;13.25;5.35;;;;;;;3.71;63.53;99967.88;3106198;28;20054;-79
2024/01/25 01:14:32;;;;;;;11.30;5.20;;;;;;;3.78;63.39;99951.47;3107608;28;20389;-77
2024/01/25 01:16:04;;;;;;;10.45;4.32;;;;;;;3.85;63.51;99940.19;3104230;28;20064;-74
2024/01/25 01:17:35;;;;;;;8.77;3.78;;;;;;;3.97;63.21;99936.59;3104597;28;20054;-73
2024/01/25 01:19:09;;;;;;;10.00;3.05;;;;;;;4.08;63.34;99931.25;3107324;28;20361;-69
2024/01/25 01:20:39;;;;;;;6.95;2.47;;;;;;;4.19;63.14;99929.34;3107233;28;20050;-76
2024/01/25 01:22:11;;;;;;;6.00;2.65;;;;;;;4.14;63.06;99902.81;3107269;28;20800;-73
2024/01/25 01:23:42;;;;;;;4.50;2.20;;;;;;;4.40;63.23;99920.38;3100839;28;20058;-75
2024/01/25 01:25:14;;;;;;;4.93;1.83;;;;;;;4.53;63.03;99921.88;3095798;28;20088;-77
2024/01/25 01:26:46;;;;;;;2.80;1.35;;;;;;;4.70;62.96;99929.28;3095345;28;20050;-73
2024/01/25 01:28:18;;;;;;;3.30;1.50;;;;;;;4.87;62.74;99920.34;3095199;28;20475;-73
2024/01/25 01:29:49;;;;;;;3.78;1.33;;;;;;;5.02;62.50;99920.88;3097196;28;20471;-72
2024/01/25 01:31:20;;;;;;;4.13;1.65;;;;;;;5.15;62.21;99936.16;3106613;28;20050;-73
2024/01/25 01:32:51;;;;;;;2.65;1.35;;;;;;;5.26;61.96;99929.00;3107362;28;20049;-73
2024/01/25 01:34:25;;;;;;;3.67;1.42;;;;;;;5.38;61.72;99922.72;3107564;28;20432;-74
2024/01/25 01:35:56;;;;;;;4.05;1.92;;;;;;;5.46;61.41;99921.66;3083282;28;20059;-73
2024/01/25 01:37:27;;;;;;;3.90;1.40;;;;;;;5.56;60.83;99913.72;3106781;28;20056;-75
2024/01/25 01:38:58;;;;;;;3.28;1.60;;;;;;;5.72;60.48;99927.16;3097938;28;20495;-74
2024/01/25 01:40:30;;;;;;;6.07;1.45;;;;;;;5.81;59.88;99917.44;3099227;28;20046;-76
2024/01/25 01:42:01;;;;;;;3.42;1.45;;;;;;;5.95;59.31;99930.06;3104476;28;20049;-74
2024/01/25 01:43:32;;;;;;;2.80;1.38;;;;;;;6.03;58.92;99927.28;3107133;28;20046;-75
2024/01/25 01:45:04;;;;;;;4.25;1.67;;;;;;;6.11;58.43;99930.53;3106843;28;20064;-75
2024/01/25 01:46:39;;;;;;;3.92;1.65;;;;;;;6.19;58.10;99926.03;3106838;28;20439;-74
2024/01/25 01:48:10;;;;;;;5.80;2.17;;;;;;;6.24;57.79;99921.59;3107072;28;20487;-76
2024/01/25 01:49:44;;;;;;;3.42;1.23;;;;;;;6.30;57.63;99913.69;3104932;28;20080;-78
2024/01/25 01:51:14;;;;;;;2.50;1.20;;;;;;;6.34;57.46;99932.53;3095792;28;20110;-74
2024/01/25 01:52:47;;;;;;;2.95;1.60;;;;;;;6.34;57.22;99912.69;3096957;28;20133;-74
2024/01/25 01:54:19;;;;;;;3.92;1.88;;;;;;;6.41;57.23;99921.13;3098671;28;20046;-77
2024/01/25 01:55:50;;;;;;;3.13;1.48;;;;;;;6.43;57.03;99916.78;3101307;28;20447;-72
2024/01/25 01:57:21;;;;;;;3.42;1.63;;;;;;;6.48;57.07;99922.69;3100914;28;20050;-73
2024/01/25 01:58:53;;;;;;;4.13;1.77;;;;;;;6.47;57.04;99912.38;3106818;28;20062;-75
2024/01/25 02:00:29;;;;;;;3.90;1.35;;;;;;;6.54;56.98;99917.34;3107212;28;20439;-74
2024/01/25 02:02:00;;;;;;;3.28;1.52;;;;;;;6.56;56.79;99912.97;3106693;28;20050;-73
2024/01/25 02:03:32;;;;;;;2.92;1.50;;;;;;;6.59;56.49;99910.28;3107118;28;20161;-77
2024/01/25 02:05:05;;;;;;;3.60;1.55;;;;;;;6.64;56.50;99907.59;3106736;28;20060;-73
2024/01/25 02:06:37;;;;;;;2.88;1.42;;;;;;;6.68;56.06;99908.34;3101851;28;20057;-72
2024/01/25 02:08:09;;;;;;;4.13;1.67;;;;;;;6.74;55.74;99915.94;3100660;28;20443;-72
2024/01/25 02:09:41;;;;;;;3.55;1.50;;;;;;;6.79;55.28;99914.94;3104488;28;20423;-72
2024/01/25 02:11:12;;;;;;;4.05;1.42;;;;;;;6.84;55.16;99896.69;3104481;28;20143;-72
2024/01/25 02:12:44;;;;;;;3.35;1.50;;;;;;;6.88;55.06;99897.44;3106792;28;20076;-74
2024/01/25 02:14:15;;;;;;;4.25;1.52;;;;;;;6.81;54.75;99873.50;3106814;28;20052;-75
2024/01/25 02:15:47;;;;;;;2.90;1.08;;;;;;;6.96;54.62;99896.34;3106914;28;20060;-74
2024/01/25 02:17:17;;;;;;;3.85;1.58;;;;;;;6.98;54.13;99910.09;3106688;28;20096;-74
2024/01/25 02:18:49;;;;;;;4.68;1.27;;;;;;;7.02;54.22;99909.09;3106776;28;20140;-75
2024/01/25 02:20:21;;;;;;;4.00;1.48;;;;;;;7.07;54.01;99898.63;3096412;28;20392;-75
2024/01/25 02:21:55;;;;;;;2.95;1.35;;;;;;;7.12;53.81;99888.97;3094055;28;20078;-76
2024/01/25 02:23:27;;;;;;;3.67;1.75;;;;;;;7.16;53.64;99885.41;3098100;28;20057;-76
2024/01/25 02:24:59;;;;;;;3.67;1.10;;;;;;;7.19;53.53;99879.28;3104794;28;20144;-77
2024/01/25 02:26:29;;;;;;;6.28;1.83;;;;;;;7.26;53.70;99878.19;3096366;28;20054;-74
2024/01/25 02:28:01;;;;;;;3.35;1.20;;;;;;;7.31;53.29;99886.69;3107058;28;20428;-74
2024/01/25 02:29:32;;;;;;;3.08;1.40;;;;;;;7.35;53.59;99882.25;3106819;28;20522;-79
2024/01/25 02:31:04;;;;;;;2.35;1.13;;;;;;;7.40;53.45;99880.38;3082678;28;20050;-79
2024/01/25 02:32:35;;;;;;;2.83;1.33;;;;;;;7.46;53.34;99873.25;3105601;28;20065;-78
2024/01/25 02:34:07;;;;;;;3.33;1.23;;;;;;;7.49;53.47;99875.75;3106807;28;20534;-79
2024/01/25 02:35:38;;;;;;;6.28;1.30;;;;;;;7.58;53.29;99860.81;3104544;28;20108;-74
2024/01/25 02:37:11;;;;;;;2.80;1.35;;;;;;;7.62;53.58;99860.66;3106515;28;20050;-76
2024/01/25 02:38:43;;;;;;;3.05;1.10;;;;;;;7.67;53.42;99863.13;3106769;28;20050;-77
2024/01/25 02:40:15;;;;;;;4.65;1.10;;;;;;;7.78;53.67;99871.41;3103299;28;20471;-76
2024/01/25 02:41:46;;;;;;;2.90;1.10;;;;;;;7.75;53.68;99848.16;3101880;28;20056;-76
2024/01/25 02:43:18;;;;;;;3.85;1.50;;;;;;;7.92;53.51;99863.13;3103544;28;20050;-77
2024/01/25 02:44:49;;;;;;;5.35;1.60;;;;;;;7.97;53.96;99856.06;3102625;28;20064;-74
2024/01/25 02:46:20;;;;;;;3.63;1.08;;;;;;;8.04;53.65;99862.72;3099012;28;20057;-77
2024/01/25 02:47:51;;;;;;;3.53;1.00;;;;;;;8.07;53.87;99859.19;3100878;28;20057;-76
2024/01/25 02:49:24;;;;;;;1.88;1.10;;;;;;;8.16;53.85;99856.28;3107558;28;20061;-75
2024/01/25 02:50:55;;;;;;;1.27;0.77;;;;;;;8.16;53.86;99846.78;3100328;28;20074;-75
2024/01/25 02:52:27;;;;;;;1.55;1.10;;;;;;;8.21;53.68;99834.47;3098272;28;20060;-75
2024/01/25 02:53:59;;;;;;;2.15;0.95;;;;;;;8.31;53.39;99847.97;3108942;28;20065;-74
2024/01/25 02:55:31;;;;;;;1.45;0.70;;;;;;;8.29;53.18;99817.81;3102915;28;20078;-75
2024/01/25 02:57:02;;;;;;;2.65;1.23;;;;;;;8.49;53.23;99843.06;3090092;28;20050;-76
2024/01/25 02:58:34;;;;;;;2.28;1.05;;;;;;;8.55;53.08;99837.66;3108663;28;20072;-76
2024/01/25 03:00:06;;;;;;;2.17;0.80;;;;;;;8.58;53.02;99830.59;3109199;28;20507;-75
2024/01/25 03:01:42;;;;;;;2.00;0.77;;;;;;;8.67;53.06;99829.44;3108392;28;20128;-74
2024/01/25 03:03:12;;;;;;;2.40;1.10;;;;;;;8.72;53.18;99831.84;3108900;28;20064;-76
2024/01/25 03:04:44;;;;;;;4.15;1.30;;;;;;;8.75;53.24;99821.34;3101216;28;20060;-74
2024/01/25 03:06:15;;;;;;;2.50;1.02;;;;;;;8.78;53.09;99824.66;3105328;28;20049;-74
2024/01/25 03:07:47;;;;;;;2.15;0.90;;;;;;;8.82;53.33;99823.66;3108625;28;20057;-74
2024/01/25 03:09:21;;;;;;;2.80;0.90;;;;;;;8.79;53.35;99818.59;3108627;28;20050;-74
2024/01/25 03:10:53;;;;;;;3.13;1.27;;;;;;;8.88;53.72;99827.78;3106205;28;20219;-74
2024/01/25 03:12:23;;;;;;;2.85;0.90;;;;;;;8.76;53.57;99813.50;3108986;28;20117;-75
2024/01/25 03:13:55;;;;;;;1.65;0.80;;;;;;;8.91;54.05;99826.81;3108708;28;20064;-75
2024/01/25 03:15:26;;;;;;;2.35;1.00;;;;;;;8.88;53.90;99810.44;3108930;28;20065;-75
2024/01/25 03:16:58;;;;;;;1.35;0.82;;;;;;;8.96;54.21;99815.34;3108903;28;20046;-75
2024/01/25 03:18:29;;;;;;;1.52;0.85;;;;;;;8.99;54.06;99820.44;3105367;28;20046;-75
2024/01/25 03:20:00;;;;;;;2.38;0.70;;;;;;;9.03;54.23;99827.19;3108741;28;20054;-75
2024/01/25 03:21:31;;;;;;;1.08;0.60;;;;;;;9.03;54.46;99824.59;3102409;28;20061;-75
2024/01/25 03:23:03;;;;;;;3.80;0.80;;;;;;;9.10;54.53;99833.00;3108888;28;20053;-75
2024/01/25 03:24:38;;;;;;;4.63;0.90;;;;;;;9.13;54.18;99819.88;3084836;28;20513;-75
2024/01/25 03:26:10;;;;;;;1.63;0.70;;;;;;;9.18;54.32;99823.16;3097158;28;20112;-75
2024/01/25 03:27:42;;;;;;;2.00;0.80;;;;;;;9.16;54.41;99817.16;3108052;28;20050;-74
2024/01/25 03:29:13;;;;;;;1.58;0.82;;;;;;;9.25;54.84;99822.00;3108177;28;20058;-72
2024/01/25 03:30:44;;;;;;;2.10;0.88;;;;;;;9.30;54.71;99811.44;3108114;28;20531;-74
2024/01/25 03:32:15;;;;;;;1.95;0.70;;;;;;;9.20;54.71;99792.78;3108320;28;20042;-74
2024/01/25 03:33:47;;;;;;;1.33;0.63;;;;;;;9.36;54.72;99828.53;3108428;28;20144;-74
2024/01/25 03:35:18;;;;;;;2.22;1.20;;;;;;;9.38;54.54;99824.13;3107119;28;20057;-74
2024/01/25 03:36:52;;;;;;;3.28;1.52;;;;;;;9.38;54.54;99834.53;3102276;28;20054;-74
2024/01/25 03:38:23;;;;;;;1.50;0.88;;;;;;;9.38;54.61;99824.97;3108498;28;20160;-73
2024/01/25 03:39:57;;;;;;;4.82;1.30;;;;;;;9.37;54.56;99825.84;3106894;28;20439;-74
2024/01/25 03:41:29;;;;;;;3.80;1.10;;;;;;;9.33;54.75;99822.53;3100183;28;20061;-76
2024/01/25 03:43:00;;;;;;;2.35;0.80;;;;;;;9.31;54.59;99826.09;3100119;28;20077;-75
2024/01/25 03:44:31;;;;;;;3.13;1.25;;;;;;;9.27;54.64;99825.38;3108608;28;20068;-74
2024/01/25 03:46:03;;;;;;;2.88;1.45;;;;;;;9.26;54.83;99828.06;3102766;28;20054;-75
2024/01/25 03:47:34;;;;;;;2.75;1.27;;;;;;;9.21;54.69;99828.22;3097890;28;20511;-74
2024/01/25 03:49:06;;;;;;;2.25;0.90;;;;;;;9.18;54.65;99815.34;3108252;28;20178;-74
2024/01/25 03:50:37;;;;;;;2.38;1.17;;;;;;;9.16;54.36;99842.31;3108450;28;20058;-76
2024/01/25 03:52:08;;;;;;;3.45;0.80;;;;;;;9.12;54.31;99820.78;3084288;28;20055;-75
2024/01/25 03:53:42;;;;;;;3.28;1.05;;;;;;;9.10;54.52;99841.63;3106739;28;20050;-76
2024/01/25 03:55:15;;;;;;;2.65;1.25;;;;;;;9.09;54.42;99839.09;3103747;28;20089;-77
2024/01/25 03:56:46;;;;;;;2.42;1.48;;;;;;;9.03;53.95;99839.34;3103703;28;20464;-79
2024/01/25 03:58:19;;;;;;;1.73;1.10;;;;;;;9.05;53.90;99840.09;3106021;28;20076;-79
2024/01/25 03:59:49;;;;;;;4.93;1.53;;;;;;;8.98;54.00;99846.44;3108269;28;20053;-81
2024/01/25 04:01:21;;;;;;;4.80;1.40;;;;;;;8.99;53.81;99845.53;3106177;28;20368;-80
2024/01/25 04:02:52;;;;;;;1.90;1.00;;;;;;;8.97;53.85;99844.75;3108359;28;20061;-82
2024/01/25 04:04:24;;;;;;;2.63;1.20;;;;;;;9.00;53.76;99857.63;3108061;28;20042;-80
2024/01/25 04:05:56;;;;;;;1.98;1.00;;;;;;;8.99;53.55;99863.72;3108101;28;20057;-80
2024/01/25 04:07:26;;;;;;;3.72;1.33;;;;;;;9.00;53.57;99842.91;3108200;28;20046;-80
2024/01/25 04:08:58;;;;;;;2.35;0.80;;;;;;;8.87;53.55;99818.28;3108106;28;20061;-80
2024/01/25 04:10:30;;;;;;;1.42;0.85;;;;;;;9.03;53.25;99837.59;3106009;28;20046;-78
2024/01/25 04:12:02;;;;;;;2.70;0.75;;;;;;;9.04;53.14;99828.03;3108258;28;20037;-78
2024/01/25 04:13:33;;;;;;;1.98;0.80;;;;;;;9.08;53.42;99822.66;3108146;28;20045;-79
2024/01/25 04:15:06;;;;;;;2.47;0.85;;;;;;;9.14;53.06;99831.09;3101257;28;20108;-78
2024/01/25 04:16:36;;;;;;;1.85;0.70;;;;;;;9.16;53.12;99824.94;3107739;28;20094;-74
2024/01/25 04:18:08;;;;;;;2.67;1.05;;;;;;;9.21;52.84;99823.03;3108831;28;20161;-76
2024/01/25 04:19:39;;;;;;;1.23;0.50;;;;;;;9.28;53.07;99823.63;3108041;28;20072;-75
2024/01/25 04:21:11;;;;;;;1.83;0.70;;;;;;;9.32;52.94;99826.06;3107967;28;20054;-75
2024/01/25 04:22:42;;;;;;;1.02;0.55;;;;;;;9.39;52.70;99833.59;3107761;28;20052;-75
2024/01/25 04:24:13;;;;;;;2.28;0.70;;;;;;;9.41;52.57;99835.25;3107751;28;20447;-74
2024/01/25 04:25:47;;;;;;;3.97;0.70;;;;;;;9.45;52.18;99829.00;3099445;28;20054;-73
2024/01/25 04:27:17;;;;;;;1.75;0.95;;;;;;;9.48;52.11;99843.63;3103982;28;20522;-74
2024/01/25 04:28:49;;;;;;;3.22;0.80;;;;;;;9.51;52.32;99852.16;3107624;28;20053;-73
2024/01/25 04:30:20;;;;;;;2.05;0.90;;;;;;;9.48;52.26;99854.03;3107944;28;20434;-76
2024/01/25 04:31:52;;;;;;;2.38;0.90;;;;;;;9.55;52.35;99866.75;3107794;28;20041;-75
2024/01/25 04:33:22;;;;;;;1.63;0.80;;;;;;;9.56;51.95;99868.41;3107654;28;20088;-73
2024/01/25 04:34:54;;;;;;;2.45;1.13;;;;;;;9.58;51.95;99863.16;3107526;28;20050;-73
2024/01/25 04:36:26;;;;;;;1.67;0.77;;;;;;;9.64;51.89;99869.84;3107762;28;20523;-73
2024/01/25 04:37:57;;;;;;;3.17;1.00;;;;;;;9.69;51.94;99878.31;3107696;28;20062;-74
2024/01/25 04:39:29;;;;;;;1.55;0.60;;;;;;;9.71;51.78;99876.53;3100245;28;20106;-74
2024/01/25 04:41:01;;;;;;;1.48;0.70;;;;;;;9.68;51.80;99868.84;3098862;28;20274;-74
2024/01/25 04:42:32;;;;;;;2.25;0.60;;;;;;;9.73;51.79;99861.69;3097654;28;20130;-76
2024/01/25 04:44:04;;;;;;;1.38;0.55;;;;;;;9.74;51.90;99872.03;3108222;28;20049;-74
2024/01/25 04:45:36;;;;;;;1.23;0.50;;;;;;;9.74;52.04;99866.00;3107857;28;20053;-79
2024/01/25 04:47:07;;;;;;;2.47;0.90;;;;;;;9.73;52.01;99862.56;3107439;28;20079;-78
2024/01/25 04:48:39;;;;;;;2.08;0.70;;;;;;;9.71;52.32;99855.72;3104250;28;20488;-79
2024/01/25 04:50:10;;;;;;;1.77;0.80;;;;;;;9.53;52.00;99836.50;3105377;28;20054;-80
2024/01/25 04:51:42;;;;;;;1.42;0.80;;;;;;;9.64;52.29;99856.84;3107524;28;21041;-80
2024/01/25 04:53:13;;;;;;;1.52;0.75;;;;;;;9.73;52.11;99856.47;3107672;28;20616;-79
2024/01/25 04:54:45;;;;;;;1.17;0.50;;;;;;;9.74;52.36;99864.22;3107612;28;20053;-79
2024/01/25 04:56:17;;;;;;;3.75;0.90;;;;;;;9.74;52.48;99866.84;3101982;28;20538;-80
2024/01/25 04:57:53;;;;;;;2.58;0.70;;;;;;;9.72;52.41;99873.84;3091199;28;20049;-80
2024/01/25 04:59:24;;;;;;;3.25;1.00;;;;;;;9.69;52.11;99862.72;3098221;28;20076;-79
2024/01/25 05:00:56;;;;;;;2.45;1.10;;;;;;;9.67;52.11;99860.22;3107286;28;20049;-78
2024/01/25 05:02:28;;;;;;;1.42;0.73;;;;;;;9.74;52.34;99863.41;3107685;28;20156;-79
2024/01/25 05:03:58;;;;;;;1.60;0.73;;;;;;;9.65;52.21;99842.97;3098515;28;20579;-79
2024/01/25 05:05:30;;;;;;;2.00;0.93;;;;;;;9.75;52.21;99862.47;3104328;28;20065;-76
2024/01/25 05:07:01;;;;;;;3.75;1.10;;;;;;;9.75;52.25;99865.06;3095680;28;20537;-70
2024/01/25 05:08:33;;;;;;;2.92;0.93;;;;;;;9.75;52.57;99867.69;3099066;28;20110;-69
2024/01/25 05:10:04;;;;;;;1.67;0.85;;;;;;;9.75;52.75;99871.13;3102298;28;20049;-74
2024/01/25 05:11:40;;;;;;;3.70;0.98;;;;;;;9.76;52.41;99871.97;3098786;28;20066;-71
2024/01/25 05:13:12;;;;;;;2.78;1.08;;;;;;;9.74;52.61;99882.44;3107727;28;20530;-77
2024/01/25 05:14:44;;;;;;;3.45;1.00;;;;;;;9.69;52.90;99868.78;3107591;28;20500;-78
2024/01/25 05:16:15;;;;;;;6.78;1.10;;;;;;;9.70;52.78;99867.88;3107702;28;20080;-80
2024/01/25 05:17:46;;;;;;;13.50;4.65;;;;;;;9.68;52.79;99869.69;3102976;28;20098;-74
2024/01/25 05:19:17;;;;;;;25.02;10.85;;;;;;;9.72;53.04;99866.03;3095661;28;21070;-73
2024/01/25 05:20:49;;;;;;;3.15;1.65;;;;;;;9.75;52.86;99860.72;3100190;28;20053;-75
2024/01/25 05:22:21;;;;;;;3.55;0.80;;;;;;;9.69;53.16;99841.91;3100750;28;20082;-73
2024/01/25 05:23:53;;;;;;;2.08;0.75;;;;;;;9.73;53.21;99831.34;3107504;28;20045;-74
2024/01/25 05:25:25;;;;;;;2.13;1.05;;;;;;;9.75;53.44;99846.88;3101747;28;20633;-74
2024/01/25 05:26:59;;;;;;;2.13;1.02;;;;;;;9.74;53.09;99848.63;3100580;28;20049;-70
2024/01/25 05:28:29;;;;;;;3.67;0.90;;;;;;;9.74;53.67;99864.22;3107371;28;20061;-71
2024/01/25 05:30:01;;;;;;;28.75;12.68;;;;;;;9.79;53.65;99871.88;3107720;28;20053;-75
2024/01/25 05:31:32;;;;;;;21.38;10.55;;;;;;;9.82;53.67;99883.88;3107074;28;20435;-66
2024/01/25 05:33:05;;;;;;;10.75;5.32;;;;;;;9.86;53.82;99881.09;3107703;28;20443;-71
2024/01/25 05:34:36;;;;;;;9.20;2.90;;;;;;;9.88;53.76;99866.28;3102850;28;20050;-67
2024/01/25 05:36:08;;;;;;;3.53;1.50;;;;;;;9.62;53.40;99815.34;3094014;28;20113;-69
2024/01/25 05:37:39;;;;;;;6.90;1.67;;;;;;;9.88;53.40;99826.41;3094925;28;20050;-76
2024/01/25 05:39:12;;;;;;;1.77;1.00;;;;;;;9.89;53.80;99851.50;3088227;28;20058;-74
2024/01/25 05:40:43;;;;;;;2.97;1.50;;;;;;;9.58;53.46;99811.16;3097008;28;20064;-72
2024/01/25 05:42:16;;;;;;;2.75;1.50;;;;;;;9.87;53.53;99866.31;3105809;28;20492;-76
2024/01/25 05:43:48;;;;;;;3.65;1.50;;;;;;;9.91;53.81;99875.69;3107387;28;20053;-74
2024/01/25 05:45:21;;;;;;;2.63;1.30;;;;;;;9.92;53.84;99867.00;3098401;28;20471;-73
2024/01/25 05:46:53;;;;;;;16.60;7.75;;;;;;;9.88;53.74;99860.22;3094826;28;20046;-72
2024/01/25 05:48:24;;;;;;;7.10;3.90;;;;;;;9.97;54.12;99870.25;3098737;28;20077;-72
2024/01/25 05:49:56;;;;;;;27.30;12.25;;;;;;;9.97;53.90;99863.28;3100303;28;20642;-71
2024/01/25 05:51:27;;;;;;;8.63;5.57;;;;;;;10.05;53.68;99877.72;3096118;28;20050;-76
2024/01/25 05:52:59;;;;;;;2.13;0.80;;;;;;;10.02;54.03;99861.31;3100853;28;20051;-73
2024/01/25 05:54:29;;;;;;;2.03;0.75;;;;;;;10.09;53.75;99874.09;3094568;28;20054;-71
2024/01/25 05:56:03;;;;;;;2.05;0.70;;;;;;;10.12;53.74;99889.59;3090725;28;20073;-73
2024/01/25 05:57:36;;;;;;;3.80;0.93;;;;;;;10.15;53.72;99899.88;3092672;28;20509;-71
2024/01/25 05:59:08;;;;;;;6.13;0.70;;;;;;;10.15;53.59;99903.31;3106535;28;20508;-71
2024/01/25 06:00:39;;;;;;;3.47;0.50;;;;;;;10.18;53.77;99887.56;3095912;28;20061;-70
2024/01/25 06:02:11;;;;;;;5.50;2.05;;;;;;;10.17;53.50;99895.44;3107023;28;20061;-71
2024/01/25 06:03:42;;;;;;;1.90;0.77;;;;;;;10.10;53.45;99886.19;3103913;28;20443;-70
2024/01/25 06:05:14;;;;;;;2.20;0.85;;;;;;;10.17;53.76;99898.03;3095725;28;20090;-72
2024/01/25 06:06:45;;;;;;;2.97;0.98;;;;;;;10.13;53.92;99902.53;3105653;28;20042;-71
2024/01/25 06:08:17;;;;;;;1.42;0.90;;;;;;;10.17;53.85;99909.28;3107164;28;20053;-69
2024/01/25 06:09:48;;;;;;;2.03;0.90;;;;;;;10.19;53.60;99919.63;3096420;28;20062;-70
2024/01/25 06:11:20;;;;;;;1.55;0.68;;;;;;;10.17;53.75;99918.84;3106250;28;20144;-71
2024/01/25 06:12:52;;;;;;;2.25;1.00;;;;;;;10.15;54.11;99921.53;3106245;28;20046;-67
2024/01/25 06:14:24;;;;;;;1.75;0.80;;;;;;;10.15;53.77;99937.16;3102862;28;20060;-70
2024/01/25 06:15:55;;;;;;;1.42;0.80;;;;;;;10.13;54.22;99948.53;3105702;28;20828;-67
2024/01/25 06:17:28;;;;;;;4.43;1.27;;;;;;;10.10;53.88;99939.06;3107016;28;20050;-66
2024/01/25 06:19:01;;;;;;;2.58;0.80;;;;;;;10.12;53.96;99949.44;3107760;28;20220;-68
2024/01/25 06:20:33;;;;;;;3.17;0.85;;;;;;;10.10;54.26;99951.25;3098861;28;20107;-66
2024/01/25 06:22:04;;;;;;;2.85;1.02;;;;;;;10.08;54.45;99955.66;3107529;28;20046;-66
2024/01/25 06:23:35;;;;;;;2.92;0.80;;;;;;;10.06;54.56;99960.06;3108749;28;20089;-65
2024/01/25 06:25:07;;;;;;;2.33;0.90;;;;;;;10.05;54.29;99968.78;3106344;28;20054;-70
2024/01/25 06:26:39;;;;;;;1.48;0.82;;;;;;;10.00;54.57;99954.22;3107469;28;20050;-68
2024/01/25 06:28:11;;;;;;;2.42;0.80;;;;;;;10.02;54.80;99957.59;3098945;28;20058;-72
2024/01/25 06:29:43;;;;;;;3.05;1.00;;;;;;;9.91;54.95;99943.31;3108909;28;20053;-71
2024/01/25 06:31:15;;;;;;;4.10;1.10;;;;;;;10.00;54.82;99963.78;3100676;28;20054;-68
2024/01/25 06:32:47;;;;;;;5.13;1.42;;;;;;;9.96;55.04;99963.03;3108601;28;20052;-66
2024/01/25 06:34:18;;;;;;;4.07;1.27;;;;;;;9.96;54.79;99968.25;3088925;28;20061;-69
2024/01/25 06:35:50;;;;;;;3.75;1.50;;;;;;;9.87;54.77;99947.81;3099829;28;20098;-69
2024/01/25 06:37:21;;;;;;;5.68;1.20;;;;;;;9.95;54.95;99963.97;3107256;28;20415;-70
2024/01/25 06:38:52;;;;;;;3.42;0.88;;;;;;;9.97;54.88;99945.69;3108688;28;20053;-69
2024/01/25 06:40:23;;;;;;;4.43;1.23;;;;;;;9.98;54.83;99948.22;3103872;28;20499;-68
2024/01/25 06:41:55;;;;;;;2.20;1.10;;;;;;;10.01;54.30;99935.09;3104859;28;20050;-68
2024/01/25 06:43:27;;;;;;;3.97;1.08;;;;;;;10.02;54.20;99943.75;3108678;28;20198;-69
2024/01/25 06:44:59;;;;;;;6.82;1.30;;;;;;;10.03;53.81;99948.06;3108627;28;20045;-69
2024/01/25 06:46:30;;;;;;;9.35;2.10;;;;;;;9.95;53.68;99930.13;3108273;28;20123;-71
2024/01/25 06:48:03;;;;;;;5.97;2.33;;;;;;;10.12;54.05;99950.28;3109000;28;20136;-71
2024/01/25 06:49:34;;;;;;;3.93;1.90;;;;;;;10.14;53.67;99945.84;3107009;28;20045;-73
2024/01/25 06:51:06;;;;;;;5.28;1.85;;;;;;;10.29;53.38;99953.97;3108314;28;20335;-70
2024/01/25 06:52:36;;;;;;;3.92;1.58;;;;;;;10.32;53.01;99953.84;3108041;28;20084;-68
2024/01/25 06:54:08;;;;;;;3.95;1.42;;;;;;;10.28;52.86;99953.13;3103719;28;20057;-68
2024/01/25 06:55:39;;;;;;;2.03;1.00;;;;;;;10.25;52.81;99935.84;3102473;28;20055;-67
2024/01/25 06:57:11;;;;;;;3.30;1.27;;;;;;;10.37;52.71;99952.72;3102465;28;20486;-66
2024/01/25 06:58:43;;;;;;;8.27;1.35;;;;;;;10.37;52.60;99944.09;3108101;28;20059;-67
2024/01/25 07:00:16;;;;;;;3.00;1.15;;;;;;;10.44;52.41;99948.97;3105790;28;20054;-70
2024/01/25 07:01:48;;;;;;;6.78;1.95;;;;;;;10.39;52.45;99942.28;3106574;28;20054;-70
2024/01/25 07:03:19;;;;;;;4.85;1.30;;;;;;;10.44;52.73;99955.91;3105398;28;20133;-72
2024/01/25 07:04:52;;;;;;;3.70;1.70;;;;;;;10.53;52.20;99952.09;3100565;28;20054;-67
2024/01/25 07:06:26;;;;;;;4.00;1.30;;;;;;;10.57;52.32;99945.84;3106142;28;20096;-70
2024/01/25 07:07:57;;;;;;;4.40;2.33;;;;;;;10.35;51.84;99909.44;3102476;28;20054;-71
2024/01/25 07:09:29;;;;;;;9.82;4.28;;;;;;;10.56;52.10;99947.63;3096043;28;20089;-71
2024/01/25 07:11:01;;;;;;;4.10;1.60;;;;;;;10.57;51.75;99944.09;3095313;28;20059;-69
2024/01/25 07:12:33;;;;;;;7.03;1.83;;;;;;;10.54;51.75;99949.44;3104748;28;20086;-70
2024/01/25 07:14:06;;;;;;;4.78;1.55;;;;;;;10.56;52.04;99959.75;3101810;28;20046;-69